createdAt,value
2018-08-03T00:01:33.320Z,10.67
2018-08-03T00:04:37.842Z,10.77
2018-08-03T00:07:41.090Z,11.27
2018-08-03T00:10:45.117Z,11.43
2018-08-03T00:13:48.415Z,11.47
2018-08-03T00:16:51.731Z,11.20
2018-08-03T00:19:55.141Z,12.00
2018-08-03T00:22:58.419Z,11.23
2018-08-03T00:26:01.711Z,11.10
2018-08-03T00:29:05.013Z,11.30
2018-08-03T00:32:08.321Z,11.43
2018-08-03T00:35:11.578Z,11.17
2018-08-03T00:38:15.835Z,11.50
2018-08-03T00:41:19.107Z,10.97
2018-08-03T00:44:22.279Z,11.57
2018-08-03T00:47:25.611Z,11.70
2018-08-03T00:50:28.909Z,11.60
2018-08-03T00:53:32.259Z,11.40
2018-08-03T00:56:35.582Z,11.70
2018-08-03T00:59:38.796Z,11.17
2018-08-03T01:02:41.980Z,11.23
2018-08-03T01:05:45.463Z,10.60
2018-08-03T01:08:48.664Z,9.97
2018-08-03T01:11:51.988Z,11.10
2018-08-03T01:14:55.275Z,10.80
2018-08-03T01:17:58.468Z,11.20
2018-08-03T01:21:01.751Z,10.63
2018-08-03T01:24:04.947Z,10.77
2018-08-03T01:27:08.243Z,10.87
2018-08-03T01:30:12.957Z,10.93
2018-08-03T01:33:18.147Z,11.90
2018-08-03T01:36:21.442Z,11.50
2018-08-03T01:39:24.719Z,11.90
2018-08-03T01:42:27.944Z,10.93
2018-08-03T01:45:31.239Z,11.13
2018-08-03T01:48:34.498Z,10.97
2018-08-03T01:51:37.703Z,11.10
2018-08-03T01:54:41.008Z,11.23
2018-08-03T01:57:45.339Z,11.00
2018-08-03T02:00:48.562Z,12.07
2018-08-03T02:03:51.820Z,11.83
2018-08-03T02:06:55.128Z,12.23
2018-08-03T02:09:58.316Z,12.10
2018-08-03T02:13:01.613Z,12.17
2018-08-03T02:16:04.784Z,12.63
2018-08-03T02:19:08.257Z,11.53
2018-08-03T02:22:11.488Z,11.23
2018-08-03T02:25:15.648Z,12.40
2018-08-03T02:28:18.926Z,12.40
2018-08-03T02:31:22.259Z,11.63
2018-08-03T02:34:25.437Z,11.60
2018-08-03T02:37:28.630Z,12.50
2018-08-03T02:40:31.833Z,12.47
2018-08-03T02:43:35.132Z,11.80
2018-08-03T02:46:38.649Z,11.53
2018-08-03T02:49:42.456Z,12.03
2018-08-03T02:52:45.711Z,12.70
2018-08-03T02:55:48.999Z,12.23
2018-08-03T02:58:52.333Z,12.87
2018-08-03T03:01:55.623Z,12.07
2018-08-03T03:04:58.775Z,11.83
2018-08-03T03:08:02.119Z,11.47
2018-08-03T03:11:05.405Z,12.80
2018-08-03T03:14:09.631Z,12.70
2018-08-03T03:17:13.931Z,12.80
2018-08-03T03:20:17.167Z,12.80
2018-08-03T03:23:20.418Z,12.90
2018-08-03T03:26:23.718Z,13.10
2018-08-03T03:29:27.265Z,12.80
2018-08-03T03:32:30.589Z,12.17
2018-08-03T03:35:33.827Z,12.63
2018-08-03T03:38:37.167Z,13.00
2018-08-03T03:41:40.419Z,13.13
2018-08-03T03:44:44.567Z,13.50
2018-08-03T03:47:47.898Z,13.10
2018-08-03T03:50:51.839Z,13.30
2018-08-03T03:53:55.218Z,12.50
2018-08-03T03:56:58.442Z,12.70
2018-08-03T04:00:01.839Z,12.50
2018-08-03T04:03:05.170Z,13.90
2018-08-03T04:06:08.460Z,13.10
2018-08-03T04:09:14.045Z,12.57
2018-08-03T04:12:17.303Z,12.97
2018-08-03T04:15:20.489Z,12.73
2018-08-03T04:18:23.778Z,13.27
2018-08-03T04:21:27.079Z,13.27
2018-08-03T04:24:30.328Z,12.60
2018-08-03T04:27:34.017Z,12.47
2018-08-03T04:30:37.296Z,12.07
2018-08-03T04:33:40.599Z,12.50
2018-08-03T04:36:45.684Z,12.43
2018-08-03T04:39:49.063Z,13.00
2018-08-03T04:42:52.331Z,12.83
2018-08-03T04:45:55.555Z,12.97
2018-08-03T04:48:58.849Z,13.00
2018-08-03T04:52:03.173Z,12.83
2018-08-03T04:55:06.448Z,12.73
2018-08-03T04:58:09.735Z,12.00
2018-08-03T05:01:14.191Z,12.87
2018-08-03T05:04:17.464Z,12.90
2018-08-03T05:07:20.754Z,13.07
2018-08-03T05:10:23.942Z,12.63
2018-08-03T05:13:27.279Z,12.90
2018-08-03T05:16:30.524Z,13.20
2018-08-03T05:19:33.667Z,13.30
2018-08-03T05:22:37.161Z,13.10
2018-08-03T05:25:40.438Z,13.50
2018-08-03T05:28:44.732Z,12.83
2018-08-03T05:31:47.954Z,12.90
2018-08-03T05:34:51.139Z,13.10
2018-08-03T05:37:54.298Z,12.90
2018-08-03T05:40:57.632Z,13.20
2018-08-03T05:44:00.819Z,13.73
2018-08-03T05:47:04.170Z,13.20
2018-08-03T05:50:07.774Z,10.83
2018-08-03T05:53:11.057Z,11.43
2018-08-03T05:56:15.422Z,10.90
2018-08-03T05:59:18.788Z,10.30
2018-08-03T06:02:22.079Z,10.83
2018-08-03T06:05:25.272Z,12.13
2018-08-03T06:08:28.671Z,11.23
2018-08-03T06:11:31.980Z,11.10
2018-08-03T06:14:35.261Z,10.13
2018-08-03T06:17:38.989Z,10.67
2018-08-03T06:20:42.293Z,10.30
2018-08-03T06:23:45.663Z,10.87
2018-08-03T06:26:49.008Z,10.83
2018-08-03T06:29:52.261Z,10.77
2018-08-03T06:32:55.588Z,10.33
2018-08-03T06:35:58.869Z,11.53
2018-08-03T06:39:02.175Z,10.93
2018-08-03T06:42:05.476Z,12.07
2018-08-03T06:45:08.766Z,12.00
2018-08-03T06:48:12.077Z,11.83
2018-08-03T06:51:16.169Z,12.73
2018-08-03T06:54:19.519Z,11.83
2018-08-03T06:57:22.779Z,12.47
2018-08-03T07:00:26.083Z,12.33
2018-08-03T07:03:29.424Z,11.27
2018-08-03T07:06:32.672Z,11.43
2018-08-03T07:09:35.970Z,10.83
2018-08-03T07:12:39.382Z,10.77
2018-08-03T07:15:43.385Z,10.93
2018-08-03T07:18:46.802Z,11.13
2018-08-03T07:21:50.232Z,11.17
2018-08-03T07:24:53.629Z,10.63
2018-08-03T07:27:57.908Z,11.27
2018-08-03T07:31:01.221Z,10.60
2018-08-03T07:34:05.463Z,10.00
2018-08-03T07:37:09.883Z,10.47
2018-08-03T07:40:13.260Z,10.57
2018-08-03T07:43:16.790Z,9.43
2018-08-03T07:46:20.056Z,9.50
2018-08-03T07:49:23.361Z,10.10
2018-08-03T07:52:26.670Z,9.37
2018-08-03T07:55:30.020Z,9.73
2018-08-03T07:58:33.346Z,9.50
2018-08-03T08:01:37.696Z,9.50
2018-08-03T08:04:41.972Z,9.87
2018-08-03T08:07:45.388Z,8.97
2018-08-03T08:10:48.710Z,9.40
2018-08-03T08:13:52.109Z,10.07
2018-08-03T08:16:55.411Z,10.00
2018-08-03T08:19:58.627Z,9.43
2018-08-03T08:23:01.912Z,9.07
2018-08-03T08:26:05.312Z,9.57
2018-08-03T08:29:08.588Z,9.73
2018-08-03T08:32:11.991Z,9.20
2018-08-03T08:35:15.442Z,9.77
2018-08-03T08:38:18.652Z,9.90
2018-08-03T08:41:21.993Z,10.00
2018-08-03T08:45:34.116Z,10.03
2018-08-03T08:48:37.490Z,9.97
2018-08-03T08:51:40.804Z,10.10
2018-08-03T08:54:45.146Z,9.57
2018-08-03T08:57:48.452Z,10.30
2018-08-03T09:00:51.842Z,9.40
2018-08-03T09:03:55.336Z,10.00
2018-08-03T09:06:58.611Z,9.13
2018-08-03T09:10:02.004Z,9.87
2018-08-03T09:13:05.373Z,9.77
2018-08-03T09:16:09.012Z,9.93
2018-08-03T09:19:12.374Z,9.70
2018-08-03T09:22:15.727Z,9.43
2018-08-03T09:25:20.026Z,9.47
2018-08-03T09:28:23.393Z,9.50
2018-08-03T09:31:26.736Z,9.43
2018-08-03T09:34:30.226Z,9.40
2018-08-03T09:37:33.648Z,8.70
2018-08-03T09:40:37.055Z,9.93
2018-08-03T09:43:40.308Z,9.30
2018-08-03T09:46:44.291Z,9.40
2018-08-03T09:49:47.556Z,9.13
2018-08-03T09:52:51.911Z,8.70
2018-08-03T09:55:55.155Z,8.40
2018-08-03T09:58:58.427Z,7.80
2018-08-03T10:02:01.856Z,8.67
2018-08-03T10:05:05.281Z,8.50
2018-08-03T10:08:08.551Z,8.07
2018-08-03T10:11:11.856Z,7.67
2018-08-03T10:14:16.749Z,7.90
2018-08-03T10:17:19.941Z,7.90
2018-08-03T10:20:23.278Z,7.80
2018-08-03T10:23:26.534Z,7.90
2018-08-03T10:26:30.079Z,7.40
2018-08-03T10:29:33.361Z,7.70
2018-08-03T10:32:36.803Z,7.93
2018-08-03T10:35:40.058Z,7.80
2018-08-03T10:38:43.812Z,7.80
2018-08-03T10:41:47.034Z,7.37
2018-08-03T10:44:50.216Z,7.80
2018-08-03T10:47:53.571Z,6.97
2018-08-03T10:50:56.854Z,7.47
2018-08-03T10:54:00.081Z,7.43
2018-08-03T10:57:03.713Z,7.33
2018-08-03T11:00:07.786Z,6.83
2018-08-03T11:03:11.096Z,7.33
2018-08-03T11:06:15.480Z,6.90
2018-08-03T11:09:18.663Z,6.90
2018-08-03T11:12:21.808Z,6.77
2018-08-03T11:15:25.030Z,6.90
2018-08-03T11:18:28.290Z,7.03
2018-08-03T11:21:31.462Z,6.63
2018-08-03T11:24:34.797Z,6.30
2018-08-03T11:27:38.091Z,6.77
2018-08-03T11:30:41.500Z,5.90
2018-08-03T11:33:45.800Z,6.43
2018-08-03T11:36:49.082Z,6.87
2018-08-03T11:39:52.511Z,6.57
2018-08-03T11:42:55.886Z,6.63
2018-08-03T11:45:59.222Z,6.90
2018-08-03T11:49:02.509Z,6.47
2018-08-03T11:52:05.858Z,6.17
2018-08-03T11:55:09.191Z,5.87
2018-08-03T11:58:12.521Z,5.70
2018-08-03T12:01:16.151Z,5.90
2018-08-03T12:04:19.473Z,6.50
2018-08-03T12:07:22.809Z,6.87
2018-08-03T12:10:27.091Z,6.83
2018-08-03T12:13:30.424Z,6.63
2018-08-03T12:16:33.769Z,7.17
2018-08-03T12:19:37.002Z,6.83
2018-08-03T12:22:40.151Z,6.87
2018-08-03T12:25:44.709Z,7.20
2018-08-03T12:28:48.009Z,6.77
2018-08-03T12:31:51.323Z,6.40
2018-08-03T12:34:54.567Z,7.17
2018-08-03T12:37:57.787Z,6.60
2018-08-03T12:41:01.127Z,6.33
2018-08-03T12:44:04.621Z,6.60
2018-08-03T12:47:09.058Z,6.50
2018-08-03T12:50:12.241Z,6.10
2018-08-03T12:53:15.585Z,5.77
2018-08-03T12:56:18.860Z,5.60
2018-08-03T12:59:22.114Z,5.80
2018-08-03T13:02:27.414Z,5.80
2018-08-03T13:05:30.703Z,5.33
2018-08-03T13:08:34.164Z,5.77
2018-08-03T13:11:37.705Z,5.40
2018-08-03T13:14:40.971Z,5.53
2018-08-03T13:17:45.316Z,5.80
2018-08-03T13:20:48.593Z,6.30
2018-08-03T13:23:58.293Z,5.30
2018-08-03T13:27:01.659Z,5.63
2018-08-03T13:30:05.862Z,5.37
2018-08-03T13:33:09.158Z,5.80
2018-08-03T13:36:12.707Z,5.67
2018-08-03T13:39:16.419Z,5.80
2018-08-03T13:42:19.739Z,5.80
2018-08-03T13:45:23.081Z,6.07
2018-08-03T13:48:26.348Z,5.27
2018-08-03T13:51:29.654Z,5.77
2018-08-03T13:54:32.966Z,5.40
2018-08-03T13:57:36.242Z,5.60
2018-08-03T14:00:39.538Z,5.90
2018-08-03T14:03:42.721Z,5.50
2018-08-03T14:06:51.131Z,5.83
2018-08-03T14:09:54.548Z,5.30
2018-08-03T14:12:57.731Z,5.60
2018-08-03T14:16:00.882Z,5.83
2018-08-03T14:19:04.224Z,5.63
2018-08-03T14:22:07.520Z,5.80
2018-08-03T14:25:10.827Z,5.43
2018-08-03T14:28:15.438Z,5.63
2018-08-03T14:31:18.644Z,5.23
2018-08-03T14:34:24.900Z,5.77
2018-08-03T14:37:28.196Z,5.30
2018-08-03T14:40:31.435Z,6.10
2018-08-03T14:43:34.823Z,5.60
2018-08-03T14:46:39.098Z,5.60
2018-08-03T14:49:42.394Z,5.50
2018-08-03T14:52:46.258Z,5.77
2018-08-03T14:55:49.555Z,5.63
2018-08-03T14:58:52.775Z,5.40
2018-08-03T15:01:56.180Z,5.43
2018-08-03T15:04:59.426Z,5.57
2018-08-03T15:08:03.881Z,5.60
2018-08-03T15:11:07.251Z,5.30
2018-08-03T15:14:10.462Z,5.47
2018-08-03T15:17:14.419Z,5.97
2018-08-03T15:20:17.555Z,5.67
2018-08-03T15:23:20.728Z,5.40
2018-08-03T15:26:24.020Z,5.10
2018-08-03T15:29:27.292Z,5.83
2018-08-03T15:32:30.619Z,5.80
2018-08-03T15:35:34.065Z,6.20
2018-08-03T15:38:37.375Z,6.10
2018-08-03T15:41:40.630Z,5.77
2018-08-03T15:44:44.577Z,5.77
2018-08-03T15:47:47.700Z,5.33
2018-08-03T15:50:51.013Z,5.20
2018-08-03T15:53:54.331Z,5.40
2018-08-03T15:56:57.661Z,5.97
2018-08-03T16:00:00.952Z,5.73
2018-08-03T16:03:04.220Z,5.17
2018-08-03T16:06:07.425Z,5.47
2018-08-03T16:09:11.175Z,5.57
2018-08-03T16:12:15.447Z,5.93
2018-08-03T16:15:18.690Z,5.90
2018-08-03T16:18:21.919Z,5.70
2018-08-03T16:21:25.234Z,5.20
2018-08-03T16:24:28.427Z,5.50
2018-08-03T16:27:31.727Z,5.83
2018-08-03T16:30:35.027Z,5.77
2018-08-03T16:33:38.355Z,5.50
2018-08-03T16:36:41.607Z,5.53
2018-08-03T16:39:45.657Z,5.80
2018-08-03T16:42:48.929Z,5.37
2018-08-03T16:45:52.230Z,5.23
2018-08-03T16:48:55.389Z,5.47
2018-08-03T16:51:58.607Z,5.37
2018-08-03T16:55:01.921Z,5.50
2018-08-03T16:58:05.248Z,5.70
2018-08-03T17:01:08.411Z,5.83
2018-08-03T17:04:11.730Z,5.77
2018-08-03T17:07:15.835Z,5.17
2018-08-03T17:10:19.041Z,6.20
2018-08-03T17:13:22.850Z,5.70
2018-08-03T17:16:26.049Z,5.57
2018-08-03T17:19:29.306Z,5.47
2018-08-03T17:22:32.631Z,5.23
2018-08-03T17:25:35.998Z,6.17
2018-08-03T17:28:39.240Z,5.87
2018-08-03T17:31:42.576Z,5.70
2018-08-03T17:34:46.564Z,5.00
2018-08-03T17:37:49.864Z,5.63
2018-08-03T17:40:53.246Z,5.83
2018-08-03T17:43:56.372Z,5.90
2018-08-03T17:46:59.658Z,5.30
2018-08-03T17:50:03.051Z,5.60
2018-08-03T17:53:06.319Z,5.73
2018-08-03T17:56:09.653Z,5.70
2018-08-03T17:59:12.883Z,5.53
2018-08-03T18:02:16.203Z,5.47
2018-08-03T18:05:19.470Z,6.10
2018-08-03T18:08:22.783Z,5.37
2018-08-03T18:11:25.978Z,5.60
2018-08-03T18:14:29.209Z,5.27
2018-08-03T18:17:32.490Z,5.47
2018-08-03T18:20:35.803Z,5.53
2018-08-03T18:23:39.100Z,5.40
2018-08-03T18:26:42.379Z,5.80
2018-08-03T18:29:46.562Z,5.83
2018-08-03T18:32:49.959Z,6.10
2018-08-03T18:35:53.635Z,6.33
2018-08-03T18:38:56.925Z,6.67
2018-08-03T18:42:00.209Z,6.77
2018-08-03T18:45:03.495Z,10.53
2018-08-03T18:48:06.926Z,8.17
2018-08-03T18:51:10.190Z,6.47
2018-08-03T18:54:14.128Z,5.97
2018-08-03T18:57:17.493Z,6.10
2018-08-03T19:00:20.794Z,6.73
2018-08-03T19:03:24.126Z,7.07
2018-08-03T19:06:27.444Z,6.97
2018-08-03T19:09:30.722Z,7.57
2018-08-03T19:12:34.013Z,7.10
2018-08-03T19:15:37.375Z,7.30
2018-08-03T19:18:40.615Z,6.80
2018-08-03T19:21:44.546Z,7.60
2018-08-03T19:24:47.820Z,7.77
2018-08-03T19:27:51.121Z,7.90
2018-08-03T19:30:54.515Z,7.70
2018-08-03T19:33:57.796Z,8.50
2018-08-03T19:37:01.090Z,8.07
2018-08-03T19:40:04.654Z,7.57
2018-08-03T19:43:06.953Z,7.50
2018-08-03T19:46:10.290Z,8.30
2018-08-03T19:49:14.720Z,8.43
2018-08-03T19:52:18.047Z,7.67
2018-08-03T19:55:21.366Z,7.63
2018-08-03T19:58:24.694Z,6.90
2018-08-03T20:01:27.981Z,7.77
2018-08-03T20:04:31.323Z,7.40
2018-08-03T20:07:34.795Z,7.53
2018-08-03T20:10:37.975Z,6.97
2018-08-03T20:13:41.367Z,7.20
2018-08-03T20:16:45.216Z,7.30
2018-08-03T20:19:48.516Z,7.50
2018-08-03T20:22:51.785Z,7.47
2018-08-03T20:25:56.439Z,8.63
2018-08-03T20:28:59.698Z,7.63
2018-08-03T20:32:02.930Z,7.23
2018-08-03T20:35:06.634Z,7.47
2018-08-03T20:38:09.778Z,7.37
2018-08-03T20:41:12.995Z,7.37
2018-08-03T20:44:16.408Z,7.30
2018-08-03T20:47:20.638Z,6.70
2018-08-03T20:50:24.019Z,6.87
2018-08-03T20:53:27.347Z,6.77
2018-08-03T20:56:30.624Z,6.97
2018-08-03T20:59:34.259Z,7.63
2018-08-03T21:02:37.522Z,7.27
2018-08-03T21:05:40.896Z,7.50
2018-08-03T21:08:46.521Z,7.07
2018-08-03T21:11:49.766Z,7.40
2018-08-03T21:14:53.087Z,7.30
2018-08-03T21:17:57.379Z,7.27
2018-08-03T21:21:00.728Z,7.60
2018-08-03T21:24:04.203Z,7.47
2018-08-03T21:27:07.632Z,7.10
2018-08-03T21:30:11.440Z,7.47
2018-08-03T21:33:15.805Z,8.17
2018-08-03T21:36:19.137Z,7.80
2018-08-03T21:39:22.381Z,7.23
2018-08-03T21:42:25.716Z,7.50
2018-08-03T21:45:29.037Z,7.37
2018-08-03T21:48:32.301Z,7.67
2018-08-03T21:51:35.591Z,7.43
2018-08-03T21:54:38.929Z,7.57
2018-08-03T21:57:42.234Z,8.03
2018-08-03T22:00:46.202Z,7.80
2018-08-03T22:03:49.531Z,7.67
2018-08-03T22:06:53.019Z,7.90
2018-08-03T22:09:56.315Z,7.63
2018-08-03T22:12:59.617Z,8.00
2018-08-03T22:16:02.780Z,7.63
2018-08-03T22:19:06.075Z,7.40
2018-08-03T22:22:09.369Z,7.83
2018-08-03T22:25:12.597Z,7.43
2018-08-03T22:28:16.575Z,8.30
2018-08-03T22:31:19.884Z,8.40
2018-08-03T22:34:23.428Z,8.17
2018-08-03T22:37:27.706Z,8.00
2018-08-03T22:40:30.917Z,8.67
2018-08-03T22:43:34.184Z,7.40
2018-08-03T22:46:37.417Z,7.37
2018-08-03T22:49:40.773Z,7.77
2018-08-03T22:52:45.014Z,8.07
2018-08-03T22:55:48.291Z,7.87
2018-08-03T22:58:51.603Z,7.70
2018-08-03T23:01:54.855Z,7.70
2018-08-03T23:04:58.204Z,8.23
2018-08-03T23:08:01.679Z,8.07
2018-08-03T23:11:05.923Z,7.87
2018-08-03T23:14:09.154Z,8.00
2018-08-03T23:17:12.431Z,7.47
2018-08-03T23:20:16.773Z,7.90
2018-08-03T23:23:20.151Z,7.40
2018-08-03T23:26:23.443Z,7.93
2018-08-03T23:29:27.168Z,8.23
2018-08-03T23:32:30.436Z,7.27
2018-08-03T23:35:33.734Z,7.37
2018-08-03T23:38:36.886Z,8.00
2018-08-03T23:41:40.123Z,7.90
2018-08-03T23:44:43.876Z,7.97
2018-08-03T23:47:47.142Z,7.80
2018-08-03T23:50:50.444Z,8.10
2018-08-03T23:53:53.728Z,7.57
2018-08-03T23:56:57.042Z,7.93
